sensor_id;sensor_type;location;lat;lon;timestamp;pressure;altitude;pressure_sealevel;temperature;humidity
20971;BME280;10644;48.834;10.088;2023-03-01T00:00:08;97385.84;;;5.48;46.69
20971;BME280;10644;48.834;10.088;2023-03-01T00:02:54;97377.38;;;5.47;46.16
20971;BME280;10644;48.834;10.088;2023-03-01T00:05:30;97379.00;;;5.51;46.49
20971;BME280;10644;48.834;10.088;2023-03-01T00:08:15;97385.84;;;5.48;46.17
20971;BME280;10644;48.834;10.088;2023-03-01T00:13:27;97376.00;;;5.34;46.43
20971;BME280;10644;48.834;10.088;2023-03-01T00:16:03;97383.34;;;5.46;46.21
20971;BME280;10644;48.834;10.088;2023-03-01T00:18:35;97379.13;;;5.45;46.28
20971;BME280;10644;48.834;10.088;2023-03-01T00:21:01;97380.75;;;5.49;46.12
20971;BME280;10644;48.834;10.088;2023-03-01T00:23:33;97385.69;;;5.55;46.60
20971;BME280;10644;48.834;10.088;2023-03-01T00:26:13;97380.75;;;5.49;46.36
20971;BME280;10644;48.834;10.088;2023-03-01T00:28:41;97385.09;;;5.44;46.57
20971;BME280;10644;48.834;10.088;2023-03-01T00:31:13;97381.78;;;5.41;46.26
20971;BME280;10644;48.834;10.088;2023-03-01T00:33:45;97374.47;;;5.27;46.75
20971;BME280;10644;48.834;10.088;2023-03-01T00:36:14;97374.53;;;5.24;46.85
20971;BME280;10644;48.834;10.088;2023-03-01T00:38:45;97380.66;;;5.14;47.31
20971;BME280;10644;48.834;10.088;2023-03-01T00:44:42;97378.13;;;5.14;47.59
20971;BME280;10644;48.834;10.088;2023-03-01T00:47:09;97381.94;;;4.95;48.72
20971;BME280;10644;48.834;10.088;2023-03-01T00:49:39;97383.34;;;5.08;48.08
20971;BME280;10644;48.834;10.088;2023-03-01T00:52:14;97381.41;;;5.19;47.97
20971;BME280;10644;48.834;10.088;2023-03-01T00:54:40;97376.31;;;5.19;48.07
20971;BME280;10644;48.834;10.088;2023-03-01T00:57:07;97381.25;;;5.25;48.06
20971;BME280;10644;48.834;10.088;2023-03-01T00:59:58;97383.16;;;5.17;47.70
20971;BME280;10644;48.834;10.088;2023-03-01T01:02:31;97378.22;;;5.11;48.12
20971;BME280;10644;48.834;10.088;2023-03-01T01:05:26;97385.75;;;5.14;48.12
20971;BME280;10644;48.834;10.088;2023-03-01T01:08:02;97377.63;;;4.99;48.47
20971;BME280;10644;48.834;10.088;2023-03-01T01:10:50;97368.88;;;4.72;49.16
20971;BME280;10644;48.834;10.088;2023-03-01T01:13:16;97368.25;;;4.61;49.20
20971;BME280;10644;48.834;10.088;2023-03-01T01:15:52;97370.91;;;4.55;49.64
20971;BME280;10644;48.834;10.088;2023-03-01T01:18:19;97372.59;;;4.56;49.40
20971;BME280;10644;48.834;10.088;2023-03-01T01:21:05;97374.81;;;4.73;48.93
20971;BME280;10644;48.834;10.088;2023-03-01T01:23:56;97363.97;;;4.63;49.57
20971;BME280;10644;48.834;10.088;2023-03-01T01:26:24;97354.84;;;4.55;49.73
20971;BME280;10644;48.834;10.088;2023-03-01T01:28:54;97364.59;;;4.33;50.21
20971;BME280;10644;48.834;10.088;2023-03-01T01:31:22;97360.91;;;4.49;49.98
20971;BME280;10644;48.834;10.088;2023-03-01T01:33:52;97355.81;;;4.51;50.25
20971;BME280;10644;48.834;10.088;2023-03-01T01:36:28;97364.47;;;4.39;50.35
20971;BME280;10644;48.834;10.088;2023-03-01T01:42:21;97349.00;;;4.51;50.44
20971;BME280;10644;48.834;10.088;2023-03-01T01:51:36;97343.41;;;3.90;52.06
20971;BME280;10644;48.834;10.088;2023-03-01T01:54:13;97344.34;;;3.86;52.64
20971;BME280;10644;48.834;10.088;2023-03-01T01:56:56;97339.28;;;3.86;52.67
20971;BME280;10644;48.834;10.088;2023-03-01T01:59:28;97335.00;;;3.88;52.91
20971;BME280;10644;48.834;10.088;2023-03-01T02:01:59;97331.38;;;4.01;52.30
20971;BME280;10644;48.834;10.088;2023-03-01T02:04:26;97325.78;;;3.84;52.75
20971;BME280;10644;48.834;10.088;2023-03-01T02:07:21;97327.06;;;4.06;52.06
20971;BME280;10644;48.834;10.088;2023-03-01T02:10:14;97321.72;;;4.23;51.65
20971;BME280;10644;48.834;10.088;2023-03-01T02:12:57;97321.22;;;4.04;52.50
20971;BME280;10644;48.834;10.088;2023-03-01T02:15:35;97315.41;;;3.98;52.81
20971;BME280;10644;48.834;10.088;2023-03-01T02:18:22;97308.16;;;3.78;52.94
20971;BME280;10644;48.834;10.088;2023-03-01T02:23:38;97304.66;;;4.29;51.48
20971;BME280;10644;48.834;10.088;2023-03-01T02:32:51;97299.78;;;4.20;51.70
20971;BME280;10644;48.834;10.088;2023-03-01T02:35:22;97307.28;;;4.26;51.83
20971;BME280;10644;48.834;10.088;2023-03-01T02:37:54;97295.88;;;4.03;52.50
20971;BME280;10644;48.834;10.088;2023-03-01T02:40:28;97295.75;;;4.10;52.18
20971;BME280;10644;48.834;10.088;2023-03-01T02:42:57;97294.19;;;4.03;52.93
20971;BME280;10644;48.834;10.088;2023-03-01T02:48:49;97290.44;;;4.22;52.25
20971;BME280;10644;48.834;10.088;2023-03-01T02:57:42;97270.16;;;4.22;52.42
20971;BME280;10644;48.834;10.088;2023-03-01T03:00:21;97284.31;;;4.34;51.95
20971;BME280;10644;48.834;10.088;2023-03-01T03:03:19;97278.91;;;4.49;51.84
20971;BME280;10644;48.834;10.088;2023-03-01T03:05:58;97267.00;;;4.52;51.47
20971;BME280;10644;48.834;10.088;2023-03-01T03:08:33;97263.97;;;4.35;51.54
20971;BME280;10644;48.834;10.088;2023-03-01T03:11:01;97247.72;;;4.04;52.58
20971;BME280;10644;48.834;10.088;2023-03-01T03:13:36;97245.66;;;3.80;53.07
20971;BME280;10644;48.834;10.088;2023-03-01T03:16:05;97246.59;;;3.75;53.38
20971;BME280;10644;48.834;10.088;2023-03-01T03:18:32;97240.28;;;3.95;53.46
20971;BME280;10644;48.834;10.088;2023-03-01T03:21:08;97246.97;;;3.99;53.17
20971;BME280;10644;48.834;10.088;2023-03-01T03:23:43;97246.41;;;3.85;52.86
20971;BME280;10644;48.834;10.088;2023-03-01T03:26:48;97244.53;;;3.95;53.17
20971;BME280;10644;48.834;10.088;2023-03-01T03:29:15;97245.06;;;4.10;53.03
20971;BME280;10644;48.834;10.088;2023-03-01T03:31:42;97250.31;;;4.01;52.63
20971;BME280;10644;48.834;10.088;2023-03-01T03:34:15;97243.94;;;3.82;53.26
20971;BME280;10644;48.834;10.088;2023-03-01T03:37:00;97245.00;;;4.13;52.67
20971;BME280;10644;48.834;10.088;2023-03-01T03:39:27;97243.19;;;4.18;53.01
20971;BME280;10644;48.834;10.088;2023-03-01T03:41:59;97235.41;;;3.86;53.56
20971;BME280;10644;48.834;10.088;2023-03-01T03:44:24;97241.03;;;3.56;54.13
20971;BME280;10644;48.834;10.088;2023-03-01T03:50:17;97229.09;;;3.64;53.72
20971;BME280;10644;48.834;10.088;2023-03-01T03:53:00;97226.47;;;3.67;53.95
20971;BME280;10644;48.834;10.088;2023-03-01T03:55:27;97226.88;;;3.90;53.35
20971;BME280;10644;48.834;10.088;2023-03-01T03:57:58;97220.16;;;3.89;53.64
20971;BME280;10644;48.834;10.088;2023-03-01T04:00:56;97226.56;;;3.64;54.04
20971;BME280;10644;48.834;10.088;2023-03-01T04:03:31;97216.94;;;3.81;53.98
20971;BME280;10644;48.834;10.088;2023-03-01T04:06:04;97227.09;;;3.78;54.16
20971;BME280;10644;48.834;10.088;2023-03-01T04:08:37;97222.13;;;3.75;53.82
20971;BME280;10644;48.834;10.088;2023-03-01T04:11:19;97219.28;;;3.46;55.14
20971;BME280;10644;48.834;10.088;2023-03-01T04:13:55;97218.13;;;3.15;55.50
20971;BME280;10644;48.834;10.088;2023-03-01T04:16:23;97224.59;;;3.31;55.77
20971;BME280;10644;48.834;10.088;2023-03-01T04:18:58;97210.50;;;3.18;55.39
20971;BME280;10644;48.834;10.088;2023-03-01T04:21:25;97219.34;;;3.43;55.31
20971;BME280;10644;48.834;10.088;2023-03-01T04:24:06;97223.53;;;3.44;54.79
20971;BME280;10644;48.834;10.088;2023-03-01T04:26:51;97220.63;;;3.65;54.85
20971;BME280;10644;48.834;10.088;2023-03-01T04:29:16;97209.19;;;3.89;53.80
20971;BME280;10644;48.834;10.088;2023-03-01T04:31:49;97206.16;;;3.72;54.17
20971;BME280;10644;48.834;10.088;2023-03-01T04:34:14;97201.84;;;3.77;54.27
20971;BME280;10644;48.834;10.088;2023-03-01T04:36:39;97216.03;;;3.84;54.10
20971;BME280;10644;48.834;10.088;2023-03-01T04:39:07;97214.28;;;3.87;53.79
20971;BME280;10644;48.834;10.088;2023-03-01T04:41:40;97218.84;;;4.13;53.11
20971;BME280;10644;48.834;10.088;2023-03-01T04:44:10;97210.69;;;4.38;52.30
20971;BME280;10644;48.834;10.088;2023-03-01T04:46:38;97208.88;;;4.43;52.56
20971;BME280;10644;48.834;10.088;2023-03-01T04:49:04;97216.56;;;3.99;53.83
20971;BME280;10644;48.834;10.088;2023-03-01T04:51:31;97221.47;;;4.08;53.66
20971;BME280;10644;48.834;10.088;2023-03-01T04:53:58;97219.47;;;4.22;53.00
20971;BME280;10644;48.834;10.088;2023-03-01T04:56:41;97214.72;;;4.07;53.00
20971;BME280;10644;48.834;10.088;2023-03-01T04:59:18;97212.91;;;4.14;52.75
20971;BME280;10644;48.834;10.088;2023-03-01T05:01:53;97222.25;;;4.10;53.26
20971;BME280;10644;48.834;10.088;2023-03-01T05:04:49;97212.53;;;3.89;54.04
20971;BME280;10644;48.834;10.088;2023-03-01T05:07:28;97205.72;;;3.93;53.59
20971;BME280;10644;48.834;10.088;2023-03-01T05:10:24;97199.19;;;4.22;52.83
20971;BME280;10644;48.834;10.088;2023-03-01T05:13:07;97207.06;;;4.10;52.95
20971;BME280;10644;48.834;10.088;2023-03-01T05:15:35;97203.13;;;3.97;53.61
20971;BME280;10644;48.834;10.088;2023-03-01T05:18:01;97208.09;;;4.00;53.48
20971;BME280;10644;48.834;10.088;2023-03-01T05:20:32;97206.34;;;4.04;53.03
20971;BME280;10644;48.834;10.088;2023-03-01T05:23:03;97209.59;;;4.10;53.11
20971;BME280;10644;48.834;10.088;2023-03-01T05:25:34;97205.53;;;4.02;53.78
20971;BME280;10644;48.834;10.088;2023-03-01T05:28:13;97208.09;;;4.00;53.11
20971;BME280;10644;48.834;10.088;2023-03-01T05:30:40;97201.75;;;4.21;53.02
20971;BME280;10644;48.834;10.088;2023-03-01T05:33:13;97205.25;;;4.17;53.23
20971;BME280;10644;48.834;10.088;2023-03-01T05:35:44;97196.69;;;4.21;52.73
20971;BME280;10644;48.834;10.088;2023-03-01T05:38:12;97200.69;;;4.32;52.83
20971;BME280;10644;48.834;10.088;2023-03-01T05:40:51;97205.28;;;4.15;53.28
20971;BME280;10644;48.834;10.088;2023-03-01T05:43:36;97208.06;;;4.03;53.30
20971;BME280;10644;48.834;10.088;2023-03-01T05:46:01;97200.91;;;3.81;53.91
20971;BME280;10644;48.834;10.088;2023-03-01T05:48:43;97203.84;;;4.02;53.64
20971;BME280;10644;48.834;10.088;2023-03-01T05:51:17;97207.16;;;3.63;54.86
20971;BME280;10644;48.834;10.088;2023-03-01T05:53:57;97209.31;;;3.37;55.56
20971;BME280;10644;48.834;10.088;2023-03-01T05:56:29;97200.84;;;3.38;55.46
20971;BME280;10644;48.834;10.088;2023-03-01T05:59:02;97210.19;;;3.36;55.46
20971;BME280;10644;48.834;10.088;2023-03-01T06:01:35;97217.44;;;3.54;55.12
20971;BME280;10644;48.834;10.088;2023-03-01T06:04:11;97210.81;;;3.47;55.31
20971;BME280;10644;48.834;10.088;2023-03-01T06:09:59;97218.13;;;3.62;54.73
20971;BME280;10644;48.834;10.088;2023-03-01T06:12:26;97213.06;;;3.62;54.59
20971;BME280;10644;48.834;10.088;2023-03-01T06:14:57;97220.47;;;3.74;53.90
20971;BME280;10644;48.834;10.088;2023-03-01T06:17:41;97205.41;;;3.65;54.23
20971;BME280;10644;48.834;10.088;2023-03-01T06:20:16;97197.16;;;3.57;54.36
20971;BME280;10644;48.834;10.088;2023-03-01T06:22:56;97208.19;;;3.53;54.82
20971;BME280;10644;48.834;10.088;2023-03-01T06:25:35;97210.81;;;3.47;54.90
20971;BME280;10644;48.834;10.088;2023-03-01T06:28:07;97209.84;;;3.54;54.29
20971;BME280;10644;48.834;10.088;2023-03-01T06:30:45;97225.41;;;3.33;54.76
20971;BME280;10644;48.834;10.088;2023-03-01T06:33:23;97219.22;;;3.49;54.49
20971;BME280;10644;48.834;10.088;2023-03-01T06:35:57;97219.59;;;3.75;53.63
20971;BME280;10644;48.834;10.088;2023-03-01T06:38:34;97218.47;;;3.88;53.16
20971;BME280;10644;48.834;10.088;2023-03-01T06:41:31;97209.97;;;3.92;53.15
20971;BME280;10644;48.834;10.088;2023-03-01T06:43:59;97214.44;;;3.80;53.32
20971;BME280;10644;48.834;10.088;2023-03-01T06:46:35;97203.91;;;3.57;53.41
20971;BME280;10644;48.834;10.088;2023-03-01T06:49:24;97215.09;;;2.95;55.25
20971;BME280;10644;48.834;10.088;2023-03-01T06:51:51;97209.50;;;2.77;56.21
20971;BME280;10644;48.834;10.088;2023-03-01T06:54:19;97201.44;;;3.05;55.98
20971;BME280;10644;48.834;10.088;2023-03-01T06:56:56;97209.44;;;3.31;54.82
20971;BME280;10644;48.834;10.088;2023-03-01T06:59:21;97213.50;;;3.38;54.68
20971;BME280;10644;48.834;10.088;2023-03-01T07:01:47;97209.75;;;3.59;55.07
20971;BME280;10644;48.834;10.088;2023-03-01T07:04:28;97204.81;;;3.53;54.49
20971;BME280;10644;48.834;10.088;2023-03-01T07:06:59;97213.63;;;3.32;54.31
20971;BME280;10644;48.834;10.088;2023-03-01T07:09:27;97216.16;;;3.32;54.52
20971;BME280;10644;48.834;10.088;2023-03-01T07:12:02;97214.16;;;3.49;54.20
20971;BME280;10644;48.834;10.088;2023-03-01T07:14:28;97201.38;;;3.55;53.99
20971;BME280;10644;48.834;10.088;2023-03-01T07:16:57;97213.88;;;3.64;53.85
20971;BME280;10644;48.834;10.088;2023-03-01T07:19:26;97197.72;;;3.71;53.59
20971;BME280;10644;48.834;10.088;2023-03-01T07:21:56;97201.78;;;3.78;53.47
20971;BME280;10644;48.834;10.088;2023-03-01T07:24:34;97190.97;;;3.72;53.61
20971;BME280;10644;48.834;10.088;2023-03-01T07:27:01;97187.81;;;3.59;53.51
20971;BME280;10644;48.834;10.088;2023-03-01T07:29:27;97184.22;;;3.25;54.17
20971;BME280;10644;48.834;10.088;2023-03-01T07:31:57;97186.78;;;3.22;54.54
20971;BME280;10644;48.834;10.088;2023-03-01T07:34:30;97190.63;;;3.44;54.12
20971;BME280;10644;48.834;10.088;2023-03-01T07:36:55;97182.56;;;3.24;54.60
20971;BME280;10644;48.834;10.088;2023-03-01T07:39:23;97180.38;;;3.50;54.03
20971;BME280;10644;48.834;10.088;2023-03-01T07:41:51;97179.69;;;3.86;53.85
20971;BME280;10644;48.834;10.088;2023-03-01T07:44:44;97179.94;;;4.15;53.93
20971;BME280;10644;48.834;10.088;2023-03-01T07:47:21;97167.03;;;4.24;52.84
20971;BME280;10644;48.834;10.088;2023-03-01T07:50:03;97175.66;;;4.16;52.42
20971;BME280;10644;48.834;10.088;2023-03-01T07:52:38;97177.00;;;4.33;53.88
20971;BME280;10644;48.834;10.088;2023-03-01T07:55:03;97175.22;;;4.37;53.38
20971;BME280;10644;48.834;10.088;2023-03-01T07:57:39;97169.97;;;4.44;52.54
20971;BME280;10644;48.834;10.088;2023-03-01T08:00:11;97153.03;;;4.46;53.11
20971;BME280;10644;48.834;10.088;2023-03-01T08:02:47;97154.00;;;4.77;51.84
20971;BME280;10644;48.834;10.088;2023-03-01T08:05:19;97158.91;;;4.83;50.83
20971;BME280;10644;48.834;10.088;2023-03-01T08:08:01;97162.72;;;5.01;51.54
20971;BME280;10644;48.834;10.088;2023-03-01T08:10:35;97160.25;;;4.63;51.35
20971;BME280;10644;48.834;10.088;2023-03-01T08:13:09;97154.06;;;4.74;50.69
20971;BME280;10644;48.834;10.088;2023-03-01T08:19:09;97159.97;;;4.75;51.48
20971;BME280;10644;48.834;10.088;2023-03-01T08:21:46;97159.78;;;4.82;50.68
20971;BME280;10644;48.834;10.088;2023-03-01T08:24:34;97157.50;;;5.07;51.02
20971;BME280;10644;48.834;10.088;2023-03-01T08:27:21;97147.19;;;5.13;50.24
20971;BME280;10644;48.834;10.088;2023-03-01T08:29:48;97143.41;;;4.95;50.37
20971;BME280;10644;48.834;10.088;2023-03-01T08:32:39;97154.63;;;5.20;50.45
20971;BME280;10644;48.834;10.088;2023-03-01T08:35:14;97143.22;;;5.35;50.03
20971;BME280;10644;48.834;10.088;2023-03-01T08:37:46;97138.91;;;5.38;49.68
20971;BME280;10644;48.834;10.088;2023-03-01T08:40:27;97146.28;;;5.15;49.47
20971;BME280;10644;48.834;10.088;2023-03-01T08:42:57;97140.28;;;4.84;49.87
20971;BME280;10644;48.834;10.088;2023-03-01T08:45:23;97148.56;;;5.24;49.33
20971;BME280;10644;48.834;10.088;2023-03-01T08:47:59;97137.38;;;5.62;49.40
20971;BME280;10644;48.834;10.088;2023-03-01T08:50:33;97127.59;;;5.80;48.10
20971;BME280;10644;48.834;10.088;2023-03-01T08:53:08;97128.81;;;5.96;47.94
20971;BME280;10644;48.834;10.088;2023-03-01T08:55:39;97131.63;;;6.16;47.92
20971;BME280;10644;48.834;10.088;2023-03-01T08:58:05;97124.94;;;6.40;46.83
20971;BME280;10644;48.834;10.088;2023-03-01T09:00:33;97122.91;;;6.51;46.65
20971;BME280;10644;48.834;10.088;2023-03-01T09:03:00;97138.81;;;6.57;46.25
20971;BME280;10644;48.834;10.088;2023-03-01T09:05:35;97127.22;;;6.75;45.13
20971;BME280;10644;48.834;10.088;2023-03-01T09:08:25;97123.25;;;6.66;46.05
20971;BME280;10644;48.834;10.088;2023-03-01T09:10:54;97114.44;;;6.76;46.29
20971;BME280;10644;48.834;10.088;2023-03-01T09:13:21;97103.28;;;7.06;45.54
20971;BME280;10644;48.834;10.088;2023-03-01T09:15:50;97102.22;;;6.87;44.81
20971;BME280;10644;48.834;10.088;2023-03-01T09:18:24;97106.47;;;7.11;45.06
20971;BME280;10644;48.834;10.088;2023-03-01T09:20:50;97113.09;;;7.17;44.21
20971;BME280;10644;48.834;10.088;2023-03-01T09:23:21;97103.50;;;7.00;43.82
20971;BME280;10644;48.834;10.088;2023-03-01T09:26:10;97107.94;;;6.14;45.87
20971;BME280;10644;48.834;10.088;2023-03-01T09:28:40;97107.00;;;6.17;46.11
20971;BME280;10644;48.834;10.088;2023-03-01T09:31:07;97096.34;;;5.75;46.63
20971;BME280;10644;48.834;10.088;2023-03-01T09:33:46;97096.84;;;5.89;46.99
20971;BME280;10644;48.834;10.088;2023-03-01T09:36:39;97094.00;;;6.27;45.95
20971;BME280;10644;48.834;10.088;2023-03-01T09:39:06;97096.75;;;6.20;46.23
20971;BME280;10644;48.834;10.088;2023-03-01T09:45:11;97088.63;;;6.62;46.33
20971;BME280;10644;48.834;10.088;2023-03-01T09:47:41;97078.31;;;6.91;44.89
20971;BME280;10644;48.834;10.088;2023-03-01T09:50:20;97084.34;;;7.38;45.10
20971;BME280;10644;48.834;10.088;2023-03-01T09:53:03;97076.09;;;7.54;44.03
20971;BME280;10644;48.834;10.088;2023-03-01T09:55:40;97067.31;;;7.84;44.11
20971;BME280;10644;48.834;10.088;2023-03-01T10:10:17;97051.06;;;7.42;44.42
20971;BME280;10644;48.834;10.088;2023-03-01T10:12:55;97042.69;;;7.62;43.99
20971;BME280;10644;48.834;10.088;2023-03-01T10:15:49;97053.97;;;8.22;43.55
20971;BME280;10644;48.834;10.088;2023-03-01T10:18:24;97039.78;;;8.58;43.03
20971;BME280;10644;48.834;10.088;2023-03-01T10:24:23;97049.94;;;8.80;42.74
20971;BME280;10644;48.834;10.088;2023-03-01T10:27:07;97041.19;;;8.65;42.39
20971;BME280;10644;48.834;10.088;2023-03-01T10:29:41;97033.78;;;8.59;42.63
20971;BME280;10644;48.834;10.088;2023-03-01T10:35:29;97041.78;;;7.86;43.20
20971;BME280;10644;48.834;10.088;2023-03-01T10:38:22;97028.16;;;8.08;44.10
20971;BME280;10644;48.834;10.088;2023-03-01T10:41:11;97023.19;;;8.48;42.44
20971;BME280;10644;48.834;10.088;2023-03-01T10:43:49;97016.72;;;8.40;42.79
20971;BME280;10644;48.834;10.088;2023-03-01T10:46:27;97013.13;;;8.24;43.07
20971;BME280;10644;48.834;10.088;2023-03-01T10:49:14;97016.94;;;8.75;42.49
20971;BME280;10644;48.834;10.088;2023-03-01T10:51:45;97010.41;;;9.08;41.69
20971;BME280;10644;48.834;10.088;2023-03-01T10:54:32;97002.00;;;9.25;40.71
20971;BME280;10644;48.834;10.088;2023-03-01T10:57:03;96998.91;;;9.37;41.26
20971;BME280;10644;48.834;10.088;2023-03-01T10:59:43;96967.69;;;9.49;40.41
20971;BME280;10644;48.834;10.088;2023-03-01T11:02:46;96984.22;;;9.60;39.74
20971;BME280;10644;48.834;10.088;2023-03-01T11:08:10;96976.47;;;9.25;40.98
20971;BME280;10644;48.834;10.088;2023-03-01T11:10:36;96972.47;;;9.56;39.56
20971;BME280;10644;48.834;10.088;2023-03-01T11:16:09;96961.75;;;8.91;40.92
20971;BME280;10644;48.834;10.088;2023-03-01T11:24:09;96959.53;;;9.22;40.51
20971;BME280;10644;48.834;10.088;2023-03-01T11:26:49;96968.00;;;9.97;40.34
20971;BME280;10644;48.834;10.088;2023-03-01T11:29:51;96957.63;;;9.81;39.09
20971;BME280;10644;48.834;10.088;2023-03-01T11:32:34;96958.78;;;9.76;39.41
20971;BME280;10644;48.834;10.088;2023-03-01T11:35:12;96947.53;;;9.43;39.42
20971;BME280;10644;48.834;10.088;2023-03-01T11:37:59;96942.97;;;9.49;40.21
20971;BME280;10644;48.834;10.088;2023-03-01T11:40:40;96925.84;;;9.87;39.65
20971;BME280;10644;48.834;10.088;2023-03-01T11:49:08;96920.84;;;10.70;37.32
20971;BME280;10644;48.834;10.088;2023-03-01T11:57:43;96912.69;;;10.79;38.50
20971;BME280;10644;48.834;10.088;2023-03-01T12:06:54;96888.31;;;10.72;38.15
20971;BME280;10644;48.834;10.088;2023-03-01T12:14:40;96876.97;;;11.55;36.85
20971;BME280;10644;48.834;10.088;2023-03-01T12:26:35;96864.81;;;12.04;37.81
20971;BME280;10644;48.834;10.088;2023-03-01T12:32:16;96852.53;;;12.38;37.02
20971;BME280;10644;48.834;10.088;2023-03-01T12:44:01;96831.22;;;12.22;36.45
20971;BME280;10644;48.834;10.088;2023-03-01T12:50:13;96835.09;;;12.29;36.45
20971;BME280;10644;48.834;10.088;2023-03-01T12:52:49;96834.50;;;12.10;36.90
20971;BME280;10644;48.834;10.088;2023-03-01T12:58:24;96825.88;;;12.11;38.73
20971;BME280;10644;48.834;10.088;2023-03-01T13:07:22;96815.75;;;12.80;36.84
20971;BME280;10644;48.834;10.088;2023-03-01T13:15:50;96805.34;;;12.11;36.79
20971;BME280;10644;48.834;10.088;2023-03-01T13:18:35;96811.72;;;11.90;36.94
20971;BME280;10644;48.834;10.088;2023-03-01T13:21:04;96809.03;;;12.21;36.91
20971;BME280;10644;48.834;10.088;2023-03-01T13:23:35;96816.84;;;12.34;36.98
20971;BME280;10644;48.834;10.088;2023-03-01T13:26:19;96803.56;;;12.41;36.25
20971;BME280;10644;48.834;10.088;2023-03-01T13:37:34;96818.13;;;12.27;38.02
20971;BME280;10644;48.834;10.088;2023-03-01T13:43:29;96808.97;;;13.07;34.98
20971;BME280;10644;48.834;10.088;2023-03-01T13:46:21;96797.13;;;12.62;35.73
20971;BME280;10644;48.834;10.088;2023-03-01T13:49:00;96801.88;;;12.68;36.17
20971;BME280;10644;48.834;10.088;2023-03-01T13:51:30;96787.84;;;12.32;35.70
20971;BME280;10644;48.834;10.088;2023-03-01T13:54:20;96797.13;;;12.34;36.40
20971;BME280;10644;48.834;10.088;2023-03-01T13:56:50;96794.47;;;12.64;36.02
20971;BME280;10644;48.834;10.088;2023-03-01T13:59:23;96791.47;;;12.57;35.50
20971;BME280;10644;48.834;10.088;2023-03-01T14:01:58;96792.13;;;12.17;36.20
20971;BME280;10644;48.834;10.088;2023-03-01T14:07:28;96800.19;;;12.11;36.27
20971;BME280;10644;48.834;10.088;2023-03-01T14:10:06;96813.59;;;12.16;37.27
20971;BME280;10644;48.834;10.088;2023-03-01T14:19:18;96812.97;;;11.83;36.62
20971;BME280;10644;48.834;10.088;2023-03-01T14:21:47;96820.38;;;11.74;36.74
20971;BME280;10644;48.834;10.088;2023-03-01T14:24:22;96816.72;;;11.78;36.88
20971;BME280;10644;48.834;10.088;2023-03-01T14:27:02;96813.53;;;11.88;36.71
20971;BME280;10644;48.834;10.088;2023-03-01T14:29:36;96813.75;;;11.70;36.94
20971;BME280;10644;48.834;10.088;2023-03-01T14:32:19;96825.50;;;11.27;37.68
20971;BME280;10644;48.834;10.088;2023-03-01T14:34:51;96830.47;;;11.46;37.95
20971;BME280;10644;48.834;10.088;2023-03-01T14:39:49;96827.44;;;11.39;37.61
20971;BME280;10644;48.834;10.088;2023-03-01T14:42:16;96821.88;;;11.31;37.72
20971;BME280;10644;48.834;10.088;2023-03-01T14:44:46;96823.13;;;11.24;38.10
20971;BME280;10644;48.834;10.088;2023-03-01T14:47:31;96831.38;;;10.83;38.60
20971;BME280;10644;48.834;10.088;2023-03-01T14:50:15;96819.88;;;10.74;38.90
20971;BME280;10644;48.834;10.088;2023-03-01T14:52:46;96809.34;;;11.11;37.88
20971;BME280;10644;48.834;10.088;2023-03-01T14:55:49;96816.44;;;11.22;38.16
20971;BME280;10644;48.834;10.088;2023-03-01T14:58:20;96805.16;;;11.40;37.89
20971;BME280;10644;48.834;10.088;2023-03-01T15:01:00;96801.22;;;11.34;37.99
20971;BME280;10644;48.834;10.088;2023-03-01T15:03:54;96807.72;;;11.40;37.81
20971;BME280;10644;48.834;10.088;2023-03-01T15:06:55;96810.44;;;11.52;37.70
20971;BME280;10644;48.834;10.088;2023-03-01T15:09:34;96800.63;;;11.45;37.50
20971;BME280;10644;48.834;10.088;2023-03-01T15:15:23;96796.63;;;11.70;38.92
20971;BME280;10644;48.834;10.088;2023-03-01T15:18:14;96808.09;;;12.08;38.20
20971;BME280;10644;48.834;10.088;2023-03-01T15:20:41;96796.19;;;12.21;37.55
20971;BME280;10644;48.834;10.088;2023-03-01T15:23:24;96796.53;;;12.15;37.37
20971;BME280;10644;48.834;10.088;2023-03-01T15:29:27;96791.94;;;12.06;37.01
20971;BME280;10644;48.834;10.088;2023-03-01T15:35:42;96791.19;;;11.90;37.92
20971;BME280;10644;48.834;10.088;2023-03-01T15:41:31;96791.53;;;11.08;38.89
20971;BME280;10644;48.834;10.088;2023-03-01T15:46:50;96774.34;;;11.10;38.58
20971;BME280;10644;48.834;10.088;2023-03-01T15:49:42;96789.38;;;11.01;38.70
20971;BME280;10644;48.834;10.088;2023-03-01T15:52:25;96782.94;;;11.09;38.69
20971;BME280;10644;48.834;10.088;2023-03-01T15:55:14;96770.88;;;10.80;39.01
20971;BME280;10644;48.834;10.088;2023-03-01T15:57:42;96770.63;;;10.85;38.42
20971;BME280;10644;48.834;10.088;2023-03-01T16:00:17;96776.72;;;10.82;39.23
20971;BME280;10644;48.834;10.088;2023-03-01T16:02:52;96786.47;;;10.60;39.45
20971;BME280;10644;48.834;10.088;2023-03-01T16:05:44;96774.19;;;10.34;39.91
20971;BME280;10644;48.834;10.088;2023-03-01T16:08:15;96768.06;;;10.21;39.88
20971;BME280;10644;48.834;10.088;2023-03-01T16:10:51;96757.84;;;10.37;39.64
20971;BME280;10644;48.834;10.088;2023-03-01T16:13:41;96751.09;;;10.51;39.71
20971;BME280;10644;48.834;10.088;2023-03-01T16:16:09;96758.19;;;10.31;39.65
20971;BME280;10644;48.834;10.088;2023-03-01T16:18:42;96744.97;;;10.38;40.07
20971;BME280;10644;48.834;10.088;2023-03-01T16:21:18;96733.38;;;10.31;40.12
20971;BME280;10644;48.834;10.088;2023-03-01T16:23:44;96737.56;;;10.49;40.08
20971;BME280;10644;48.834;10.088;2023-03-01T16:26:20;96738.13;;;10.54;39.69
20971;BME280;10644;48.834;10.088;2023-03-01T16:28:45;96730.28;;;10.73;38.86
20971;BME280;10644;48.834;10.088;2023-03-01T16:31:17;96739.72;;;10.72;38.55
20971;BME280;10644;48.834;10.088;2023-03-01T16:33:44;96748.16;;;10.26;39.68
20971;BME280;10644;48.834;10.088;2023-03-01T16:36:22;96752.44;;;10.58;39.90
20971;BME280;10644;48.834;10.088;2023-03-01T16:39:04;96761.09;;;10.40;39.71
20971;BME280;10644;48.834;10.088;2023-03-01T16:41:31;96757.81;;;10.21;39.96
20971;BME280;10644;48.834;10.088;2023-03-01T16:43:59;96771.13;;;10.28;39.84